sensor_id;sensor_type;location;lat;lon;timestamp;P1;durP1;ratioP1;P2;durP2;ratioP2
19782;SDS011;10051;40.294;-3.754;2023-10-31T00:02:19;4.00;;;1.10;;
19782;SDS011;10051;40.294;-3.754;2023-10-31T00:04:45;7.70;;;1.38;;
19782;SDS011;10051;40.294;-3.754;2023-10-31T00:07:11;3.63;;;0.80;;
19782;SDS011;10051;40.294;-3.754;2023-10-31T00:09:36;1.80;;;0.70;;
19782;SDS011;10051;40.294;-3.754;2023-10-31T00:12:04;4.55;;;0.90;;
19782;SDS011;10051;40.294;-3.754;2023-10-31T00:14:33;4.38;;;0.80;;
19782;SDS011;10051;40.294;-3.754;2023-10-31T00:17:03;3.53;;;0.90;;
19782;SDS011;10051;40.294;-3.754;2023-10-31T00:19:32;1.67;;;0.80;;
19782;SDS011;10051;40.294;-3.754;2023-10-31T00:21:58;2.42;;;0.90;;
19782;SDS011;10051;40.294;-3.754;2023-10-31T00:24:26;3.47;;;0.90;;
19782;SDS011;10051;40.294;-3.754;2023-10-31T00:26:57;5.20;;;1.00;;
19782;SDS011;10051;40.294;-3.754;2023-10-31T00:29:22;3.90;;;1.00;;
19782;SDS011;10051;40.294;-3.754;2023-10-31T00:31:48;1.83;;;0.85;;
19782;SDS011;10051;40.294;-3.754;2023-10-31T00:34:17;2.92;;;1.08;;
19782;SDS011;10051;40.294;-3.754;2023-10-31T00:36:49;3.33;;;0.75;;
19782;SDS011;10051;40.294;-3.754;2023-10-31T00:39:18;4.07;;;0.90;;
19782;SDS011;10051;40.294;-3.754;2023-10-31T00:41:51;2.17;;;0.90;;
19782;SDS011;10051;40.294;-3.754;2023-10-31T00:44:18;2.65;;;0.70;;
19782;SDS011;10051;40.294;-3.754;2023-10-31T00:46:44;4.70;;;0.85;;
19782;SDS011;10051;40.294;-3.754;2023-10-31T00:49:10;5.90;;;1.00;;
19782;SDS011;10051;40.294;-3.754;2023-10-31T00:51:35;2.95;;;0.75;;
19782;SDS011;10051;40.294;-3.754;2023-10-31T00:54:01;3.35;;;0.90;;
19782;SDS011;10051;40.294;-3.754;2023-10-31T00:56:26;4.35;;;0.80;;
19782;SDS011;10051;40.294;-3.754;2023-10-31T00:58:52;5.18;;;1.00;;
19782;SDS011;10051;40.294;-3.754;2023-10-31T01:01:17;4.13;;;0.90;;
19782;SDS011;10051;40.294;-3.754;2023-10-31T01:03:46;2.53;;;0.82;;
19782;SDS011;10051;40.294;-3.754;2023-10-31T01:06:12;4.05;;;0.70;;
19782;SDS011;10051;40.294;-3.754;2023-10-31T01:08:40;4.80;;;0.82;;
19782;SDS011;10051;40.294;-3.754;2023-10-31T01:11:06;1.90;;;0.70;;
19782;SDS011;10051;40.294;-3.754;2023-10-31T01:13:31;2.78;;;0.90;;
19782;SDS011;10051;40.294;-3.754;2023-10-31T01:16:00;5.63;;;1.00;;
19782;SDS011;10051;40.294;-3.754;2023-10-31T01:18:28;3.13;;;0.80;;
19782;SDS011;10051;40.294;-3.754;2023-10-31T01:20:54;4.32;;;0.85;;
19782;SDS011;10051;40.294;-3.754;2023-10-31T01:23:20;2.05;;;0.80;;
19782;SDS011;10051;40.294;-3.754;2023-10-31T01:25:51;4.18;;;1.20;;
19782;SDS011;10051;40.294;-3.754;2023-10-31T01:28:17;3.38;;;0.98;;
19782;SDS011;10051;40.294;-3.754;2023-10-31T01:30:45;2.38;;;0.90;;
19782;SDS011;10051;40.294;-3.754;2023-10-31T01:33:14;2.40;;;0.80;;
19782;SDS011;10051;40.294;-3.754;2023-10-31T01:35:40;3.90;;;0.88;;
19782;SDS011;10051;40.294;-3.754;2023-10-31T01:38:06;5.30;;;0.90;;
19782;SDS011;10051;40.294;-3.754;2023-10-31T01:40:37;3.97;;;0.80;;
19782;SDS011;10051;40.294;-3.754;2023-10-31T01:43:05;3.85;;;0.90;;
19782;SDS011;10051;40.294;-3.754;2023-10-31T01:45:44;2.47;;;0.85;;
19782;SDS011;10051;40.294;-3.754;2023-10-31T01:48:17;4.70;;;1.13;;
19782;SDS011;10051;40.294;-3.754;2023-10-31T01:50:44;3.50;;;0.80;;
19782;SDS011;10051;40.294;-3.754;2023-10-31T01:53:10;4.50;;;0.95;;
19782;SDS011;10051;40.294;-3.754;2023-10-31T01:55:40;2.15;;;0.70;;
19782;SDS011;10051;40.294;-3.754;2023-10-31T01:58:20;3.35;;;0.90;;
19782;SDS011;10051;40.294;-3.754;2023-10-31T02:00:56;2.17;;;0.80;;
19782;SDS011;10051;40.294;-3.754;2023-10-31T02:03:31;2.28;;;0.80;;
19782;SDS011;10051;40.294;-3.754;2023-10-31T02:06:00;3.25;;;0.93;;
19782;SDS011;10051;40.294;-3.754;2023-10-31T02:08:29;2.30;;;0.70;;
19782;SDS011;10051;40.294;-3.754;2023-10-31T02:10:57;4.45;;;0.80;;
19782;SDS011;10051;40.294;-3.754;2023-10-31T02:13:36;2.40;;;0.80;;
19782;SDS011;10051;40.294;-3.754;2023-10-31T02:16:10;6.00;;;1.10;;
19782;SDS011;10051;40.294;-3.754;2023-10-31T02:18:48;5.40;;;1.00;;
19782;SDS011;10051;40.294;-3.754;2023-10-31T02:21:14;3.08;;;0.80;;
19782;SDS011;10051;40.294;-3.754;2023-10-31T02:23:41;4.80;;;1.00;;
19782;SDS011;10051;40.294;-3.754;2023-10-31T02:26:09;4.57;;;1.08;;
19782;SDS011;10051;40.294;-3.754;2023-10-31T02:28:45;2.88;;;0.73;;
19782;SDS011;10051;40.294;-3.754;2023-10-31T02:31:16;4.18;;;0.80;;
19782;SDS011;10051;40.294;-3.754;2023-10-31T02:33:48;5.18;;;0.77;;
19782;SDS011;10051;40.294;-3.754;2023-10-31T02:36:16;3.00;;;0.90;;
19782;SDS011;10051;40.294;-3.754;2023-10-31T02:38:51;3.42;;;0.98;;
19782;SDS011;10051;40.294;-3.754;2023-10-31T02:41:17;4.22;;;0.88;;
19782;SDS011;10051;40.294;-3.754;2023-10-31T02:43:52;2.10;;;0.80;;
19782;SDS011;10051;40.294;-3.754;2023-10-31T02:46:20;4.00;;;0.95;;
19782;SDS011;10051;40.294;-3.754;2023-10-31T02:48:46;4.10;;;0.70;;
19782;SDS011;10051;40.294;-3.754;2023-10-31T02:51:19;3.88;;;0.88;;
19782;SDS011;10051;40.294;-3.754;2023-10-31T02:54:10;4.00;;;1.10;;
19782;SDS011;10051;40.294;-3.754;2023-10-31T02:56:44;3.42;;;0.90;;
19782;SDS011;10051;40.294;-3.754;2023-10-31T02:59:21;4.65;;;0.90;;
19782;SDS011;10051;40.294;-3.754;2023-10-31T03:01:46;4.20;;;1.10;;
19782;SDS011;10051;40.294;-3.754;2023-10-31T03:04:16;4.50;;;1.20;;
19782;SDS011;10051;40.294;-3.754;2023-10-31T03:06:47;4.93;;;1.50;;
19782;SDS011;10051;40.294;-3.754;2023-10-31T03:09:18;4.03;;;1.55;;
19782;SDS011;10051;40.294;-3.754;2023-10-31T03:11:44;4.53;;;1.60;;
19782;SDS011;10051;40.294;-3.754;2023-10-31T03:14:15;5.00;;;1.50;;
19782;SDS011;10051;40.294;-3.754;2023-10-31T03:16:40;4.00;;;1.63;;
19782;SDS011;10051;40.294;-3.754;2023-10-31T03:19:12;4.10;;;1.45;;
19782;SDS011;10051;40.294;-3.754;2023-10-31T03:21:41;3.50;;;1.25;;
19782;SDS011;10051;40.294;-3.754;2023-10-31T03:24:10;4.47;;;1.58;;
19782;SDS011;10051;40.294;-3.754;2023-10-31T03:26:38;8.85;;;1.65;;
19782;SDS011;10051;40.294;-3.754;2023-10-31T03:29:04;3.70;;;1.63;;
19782;SDS011;10051;40.294;-3.754;2023-10-31T03:31:32;6.93;;;1.75;;
19782;SDS011;10051;40.294;-3.754;2023-10-31T03:34:01;3.72;;;1.60;;
19782;SDS011;10051;40.294;-3.754;2023-10-31T03:36:27;4.43;;;2.00;;
19782;SDS011;10051;40.294;-3.754;2023-10-31T03:38:58;7.97;;;2.05;;
19782;SDS011;10051;40.294;-3.754;2023-10-31T03:41:24;7.05;;;2.30;;
19782;SDS011;10051;40.294;-3.754;2023-10-31T03:43:55;8.73;;;2.38;;
19782;SDS011;10051;40.294;-3.754;2023-10-31T03:46:26;6.57;;;2.50;;
19782;SDS011;10051;40.294;-3.754;2023-10-31T03:48:51;7.07;;;2.55;;
19782;SDS011;10051;40.294;-3.754;2023-10-31T03:51:29;7.28;;;2.50;;
19782;SDS011;10051;40.294;-3.754;2023-10-31T03:54:13;8.23;;;2.00;;
19782;SDS011;10051;40.294;-3.754;2023-10-31T03:56:42;7.95;;;2.10;;
19782;SDS011;10051;40.294;-3.754;2023-10-31T03:59:12;8.70;;;2.00;;
19782;SDS011;10051;40.294;-3.754;2023-10-31T04:01:40;8.00;;;1.77;;
19782;SDS011;10051;40.294;-3.754;2023-10-31T04:04:09;5.35;;;1.80;;
19782;SDS011;10051;40.294;-3.754;2023-10-31T04:06:34;3.90;;;1.67;;
19782;SDS011;10051;40.294;-3.754;2023-10-31T04:09:03;5.85;;;1.80;;
19782;SDS011;10051;40.294;-3.754;2023-10-31T04:11:31;5.05;;;1.95;;
19782;SDS011;10051;40.294;-3.754;2023-10-31T04:14:03;5.22;;;1.90;;
19782;SDS011;10051;40.294;-3.754;2023-10-31T04:16:31;6.65;;;2.10;;
19782;SDS011;10051;40.294;-3.754;2023-10-31T04:18:57;4.85;;;2.08;;
19782;SDS011;10051;40.294;-3.754;2023-10-31T04:21:25;10.05;;;2.10;;
19782;SDS011;10051;40.294;-3.754;2023-10-31T04:23:56;7.78;;;1.90;;
19782;SDS011;10051;40.294;-3.754;2023-10-31T04:26:28;4.55;;;1.73;;
19782;SDS011;10051;40.294;-3.754;2023-10-31T04:29:01;5.95;;;1.80;;
19782;SDS011;10051;40.294;-3.754;2023-10-31T04:31:36;5.53;;;1.75;;
19782;SDS011;10051;40.294;-3.754;2023-10-31T04:34:01;5.75;;;1.63;;
19782;SDS011;10051;40.294;-3.754;2023-10-31T04:36:35;4.78;;;1.73;;
19782;SDS011;10051;40.294;-3.754;2023-10-31T04:39:09;7.38;;;1.88;;
19782;SDS011;10051;40.294;-3.754;2023-10-31T04:41:35;4.70;;;1.60;;
19782;SDS011;10051;40.294;-3.754;2023-10-31T04:44:03;5.10;;;1.60;;
19782;SDS011;10051;40.294;-3.754;2023-10-31T04:46:47;6.32;;;1.75;;
19782;SDS011;10051;40.294;-3.754;2023-10-31T04:49:19;5.40;;;1.60;;
19782;SDS011;10051;40.294;-3.754;2023-10-31T04:51:51;5.22;;;1.50;;
19782;SDS011;10051;40.294;-3.754;2023-10-31T04:54:50;7.57;;;1.70;;
19782;SDS011;10051;40.294;-3.754;2023-10-31T04:57:59;5.47;;;1.90;;
19782;SDS011;10051;40.294;-3.754;2023-10-31T05:01:11;3.25;;;1.73;;
19782;SDS011;10051;40.294;-3.754;2023-10-31T05:04:13;6.18;;;2.28;;
19782;SDS011;10051;40.294;-3.754;2023-10-31T05:07:26;4.68;;;2.58;;
19782;SDS011;10051;40.294;-3.754;2023-10-31T05:17:02;14.95;;;8.52;;
19782;SDS011;10051;40.294;-3.754;2023-10-31T05:20:08;26.88;;;13.23;;
19782;SDS011;10051;40.294;-3.754;2023-10-31T05:35:55;28.35;;;18.98;;
19782;SDS011;10051;40.294;-3.754;2023-10-31T05:41:58;35.53;;;23.27;;
19782;SDS011;10051;40.294;-3.754;2023-10-31T05:44:45;26.55;;;15.40;;
19782;SDS011;10051;40.294;-3.754;2023-10-31T05:50:51;13.10;;;7.38;;
19782;SDS011;10051;40.294;-3.754;2023-10-31T05:56:54;14.32;;;6.07;;
19782;SDS011;10051;40.294;-3.754;2023-10-31T06:02:27;17.52;;;8.45;;
19782;SDS011;10051;40.294;-3.754;2023-10-31T06:05:11;15.75;;;8.57;;
19782;SDS011;10051;40.294;-3.754;2023-10-31T06:08:00;17.90;;;9.90;;
19782;SDS011;10051;40.294;-3.754;2023-10-31T06:11:11;17.88;;;10.25;;
19782;SDS011;10051;40.294;-3.754;2023-10-31T06:13:52;16.27;;;10.35;;
19782;SDS011;10051;40.294;-3.754;2023-10-31T06:19:49;16.63;;;9.80;;
19782;SDS011;10051;40.294;-3.754;2023-10-31T06:25:31;20.63;;;11.68;;
19782;SDS011;10051;40.294;-3.754;2023-10-31T06:28:12;24.55;;;14.63;;
19782;SDS011;10051;40.294;-3.754;2023-10-31T06:30:55;29.75;;;19.92;;
19782;SDS011;10051;40.294;-3.754;2023-10-31T06:33:41;36.17;;;23.00;;
19782;SDS011;10051;40.294;-3.754;2023-10-31T06:36:51;34.25;;;21.73;;
19782;SDS011;10051;40.294;-3.754;2023-10-31T06:39:22;38.13;;;21.42;;
19782;SDS011;10051;40.294;-3.754;2023-10-31T06:42:24;35.47;;;20.23;;
19782;SDS011;10051;40.294;-3.754;2023-10-31T06:45:15;33.10;;;19.85;;
19782;SDS011;10051;40.294;-3.754;2023-10-31T06:53:17;39.78;;;24.10;;
19782;SDS011;10051;40.294;-3.754;2023-10-31T06:55:45;38.25;;;24.13;;
19782;SDS011;10051;40.294;-3.754;2023-10-31T06:58:11;37.05;;;24.15;;
19782;SDS011;10051;40.294;-3.754;2023-10-31T07:00:37;37.58;;;24.85;;
19782;SDS011;10051;40.294;-3.754;2023-10-31T07:03:05;40.72;;;24.42;;
19782;SDS011;10051;40.294;-3.754;2023-10-31T07:05:37;33.75;;;22.27;;
19782;SDS011;10051;40.294;-3.754;2023-10-31T07:08:10;35.08;;;22.13;;
19782;SDS011;10051;40.294;-3.754;2023-10-31T07:14:13;32.33;;;20.92;;
19782;SDS011;10051;40.294;-3.754;2023-10-31T07:16:47;32.95;;;20.67;;
19782;SDS011;10051;40.294;-3.754;2023-10-31T07:19:16;33.20;;;20.75;;
19782;SDS011;10051;40.294;-3.754;2023-10-31T07:22:20;32.60;;;20.83;;
19782;SDS011;10051;40.294;-3.754;2023-10-31T07:24:57;33.47;;;20.08;;
19782;SDS011;10051;40.294;-3.754;2023-10-31T07:27:38;32.83;;;17.60;;
19782;SDS011;10051;40.294;-3.754;2023-10-31T07:30:28;23.65;;;13.77;;
19782;SDS011;10051;40.294;-3.754;2023-10-31T07:39:00;27.05;;;12.25;;
19782;SDS011;10051;40.294;-3.754;2023-10-31T07:44:27;22.13;;;12.32;;
19782;SDS011;10051;40.294;-3.754;2023-10-31T07:46:55;23.95;;;12.38;;
19782;SDS011;10051;40.294;-3.754;2023-10-31T07:49:21;27.58;;;12.40;;
19782;SDS011;10051;40.294;-3.754;2023-10-31T07:51:47;23.90;;;12.32;;
19782;SDS011;10051;40.294;-3.754;2023-10-31T07:54:13;26.20;;;13.02;;
19782;SDS011;10051;40.294;-3.754;2023-10-31T07:56:39;24.85;;;12.20;;
19782;SDS011;10051;40.294;-3.754;2023-10-31T07:59:05;20.48;;;11.77;;
19782;SDS011;10051;40.294;-3.754;2023-10-31T08:01:33;22.38;;;11.55;;
19782;SDS011;10051;40.294;-3.754;2023-10-31T08:03:59;22.48;;;11.23;;
19782;SDS011;10051;40.294;-3.754;2023-10-31T08:06:24;20.10;;;9.80;;
19782;SDS011;10051;40.294;-3.754;2023-10-31T08:08:50;18.27;;;9.90;;
19782;SDS011;10051;40.294;-3.754;2023-10-31T08:11:16;20.60;;;9.88;;
19782;SDS011;10051;40.294;-3.754;2023-10-31T08:13:42;22.27;;;9.48;;
19782;SDS011;10051;40.294;-3.754;2023-10-31T08:16:08;19.90;;;8.93;;
19782;SDS011;10051;40.294;-3.754;2023-10-31T08:18:34;22.90;;;9.05;;
19782;SDS011;10051;40.294;-3.754;2023-10-31T08:21:00;16.80;;;8.00;;
19782;SDS011;10051;40.294;-3.754;2023-10-31T08:23:25;22.50;;;8.23;;
19782;SDS011;10051;40.294;-3.754;2023-10-31T08:25:52;16.40;;;8.05;;
19782;SDS011;10051;40.294;-3.754;2023-10-31T08:28:18;16.90;;;7.38;;
19782;SDS011;10051;40.294;-3.754;2023-10-31T08:30:43;80.45;;;11.90;;
19782;SDS011;10051;40.294;-3.754;2023-10-31T08:33:09;72.10;;;8.68;;
19782;SDS011;10051;40.294;-3.754;2023-10-31T08:35:34;15.70;;;6.40;;
19782;SDS011;10051;40.294;-3.754;2023-10-31T08:38:00;15.68;;;6.85;;
19782;SDS011;10051;40.294;-3.754;2023-10-31T08:40:26;15.40;;;7.03;;
19782;SDS011;10051;40.294;-3.754;2023-10-31T08:42:51;14.77;;;6.22;;
19782;SDS011;10051;40.294;-3.754;2023-10-31T08:45:17;21.00;;;6.78;;
19782;SDS011;10051;40.294;-3.754;2023-10-31T08:47:43;16.25;;;6.97;;
19782;SDS011;10051;40.294;-3.754;2023-10-31T08:50:09;89.53;;;10.88;;
19782;SDS011;10051;40.294;-3.754;2023-10-31T08:52:36;34.78;;;8.30;;
19782;SDS011;10051;40.294;-3.754;2023-10-31T08:55:02;16.70;;;6.18;;
19782;SDS011;10051;40.294;-3.754;2023-10-31T08:57:28;52.55;;;6.90;;
19782;SDS011;10051;40.294;-3.754;2023-10-31T08:59:54;112.82;;;8.40;;
19782;SDS011;10051;40.294;-3.754;2023-10-31T09:02:19;17.20;;;4.87;;
19782;SDS011;10051;40.294;-3.754;2023-10-31T09:04:45;19.35;;;4.47;;
19782;SDS011;10051;40.294;-3.754;2023-10-31T09:07:10;9.95;;;3.67;;
19782;SDS011;10051;40.294;-3.754;2023-10-31T09:09:36;10.43;;;3.15;;
19782;SDS011;10051;40.294;-3.754;2023-10-31T09:12:02;7.43;;;2.70;;
19782;SDS011;10051;40.294;-3.754;2023-10-31T09:14:28;6.15;;;2.42;;
19782;SDS011;10051;40.294;-3.754;2023-10-31T09:16:53;7.10;;;2.50;;
19782;SDS011;10051;40.294;-3.754;2023-10-31T09:19:19;7.18;;;2.45;;
19782;SDS011;10051;40.294;-3.754;2023-10-31T09:21:45;14.25;;;2.70;;
19782;SDS011;10051;40.294;-3.754;2023-10-31T09:24:10;6.38;;;2.75;;
19782;SDS011;10051;40.294;-3.754;2023-10-31T09:26:36;11.00;;;2.97;;
19782;SDS011;10051;40.294;-3.754;2023-10-31T09:29:02;8.68;;;2.90;;
19782;SDS011;10051;40.294;-3.754;2023-10-31T09:31:28;9.57;;;2.40;;
19782;SDS011;10051;40.294;-3.754;2023-10-31T09:33:54;7.38;;;2.53;;
19782;SDS011;10051;40.294;-3.754;2023-10-31T09:36:19;5.35;;;2.40;;
19782;SDS011;10051;40.294;-3.754;2023-10-31T09:38:45;5.88;;;2.58;;
19782;SDS011;10051;40.294;-3.754;2023-10-31T09:41:12;7.75;;;2.70;;
19782;SDS011;10051;40.294;-3.754;2023-10-31T09:43:40;11.05;;;2.70;;
19782;SDS011;10051;40.294;-3.754;2023-10-31T09:46:07;6.65;;;2.72;;
19782;SDS011;10051;40.294;-3.754;2023-10-31T09:48:35;7.95;;;2.90;;
19782;SDS011;10051;40.294;-3.754;2023-10-31T09:51:01;9.50;;;2.90;;
19782;SDS011;10051;40.294;-3.754;2023-10-31T09:53:29;7.95;;;2.60;;
19782;SDS011;10051;40.294;-3.754;2023-10-31T09:55:59;8.77;;;3.00;;
19782;SDS011;10051;40.294;-3.754;2023-10-31T09:58:24;9.20;;;3.03;;
19782;SDS011;10051;40.294;-3.754;2023-10-31T10:00:50;11.27;;;3.35;;
19782;SDS011;10051;40.294;-3.754;2023-10-31T10:03:16;10.68;;;3.88;;
19782;SDS011;10051;40.294;-3.754;2023-10-31T10:05:43;9.35;;;2.92;;
19782;SDS011;10051;40.294;-3.754;2023-10-31T10:08:10;13.00;;;4.22;;
19782;SDS011;10051;40.294;-3.754;2023-10-31T10:10:36;9.80;;;3.88;;
19782;SDS011;10051;40.294;-3.754;2023-10-31T10:13:02;14.13;;;5.00;;
19782;SDS011;10051;40.294;-3.754;2023-10-31T10:15:28;13.35;;;5.90;;
19782;SDS011;10051;40.294;-3.754;2023-10-31T10:17:54;13.20;;;4.78;;
19782;SDS011;10051;40.294;-3.754;2023-10-31T10:20:20;13.68;;;4.82;;
19782;SDS011;10051;40.294;-3.754;2023-10-31T10:22:46;9.32;;;4.28;;
19782;SDS011;10051;40.294;-3.754;2023-10-31T10:25:13;12.63;;;5.05;;
19782;SDS011;10051;40.294;-3.754;2023-10-31T10:27:42;10.18;;;5.60;;
19782;SDS011;10051;40.294;-3.754;2023-10-31T10:30:08;12.35;;;5.35;;
19782;SDS011;10051;40.294;-3.754;2023-10-31T10:32:34;11.23;;;5.57;;
19782;SDS011;10051;40.294;-3.754;2023-10-31T10:35:00;10.80;;;5.40;;
19782;SDS011;10051;40.294;-3.754;2023-10-31T10:37:26;12.88;;;5.70;;
19782;SDS011;10051;40.294;-3.754;2023-10-31T10:39:53;14.25;;;5.50;;
19782;SDS011;10051;40.294;-3.754;2023-10-31T10:44:53;11.15;;;4.20;;
19782;SDS011;10051;40.294;-3.754;2023-10-31T10:47:23;10.20;;;4.53;;
19782;SDS011;10051;40.294;-3.754;2023-10-31T10:49:50;12.95;;;5.78;;
19782;SDS011;10051;40.294;-3.754;2023-10-31T10:52:23;10.23;;;5.53;;
19782;SDS011;10051;40.294;-3.754;2023-10-31T10:55:08;12.15;;;5.45;;
19782;SDS011;10051;40.294;-3.754;2023-10-31T10:57:39;13.48;;;4.60;;
19782;SDS011;10051;40.294;-3.754;2023-10-31T11:00:09;12.63;;;4.20;;
19782;SDS011;10051;40.294;-3.754;2023-10-31T11:02:38;12.23;;;3.70;;
19782;SDS011;10051;40.294;-3.754;2023-10-31T11:05:05;5.88;;;3.15;;
19782;SDS011;10051;40.294;-3.754;2023-10-31T11:07:34;7.40;;;3.38;;
19782;SDS011;10051;40.294;-3.754;2023-10-31T11:10:02;10.05;;;3.40;;
19782;SDS011;10051;40.294;-3.754;2023-10-31T11:12:30;9.10;;;3.03;;
19782;SDS011;10051;40.294;-3.754;2023-10-31T11:14:59;14.43;;;5.00;;
19782;SDS011;10051;40.294;-3.754;2023-10-31T11:17:28;15.98;;;6.32;;
19782;SDS011;10051;40.294;-3.754;2023-10-31T11:20:02;18.23;;;6.97;;
19782;SDS011;10051;40.294;-3.754;2023-10-31T11:22:41;13.57;;;6.93;;
19782;SDS011;10051;40.294;-3.754;2023-10-31T11:25:23;14.07;;;6.88;;
19782;SDS011;10051;40.294;-3.754;2023-10-31T11:27:52;19.08;;;6.97;;
19782;SDS011;10051;40.294;-3.754;2023-10-31T11:30:22;11.85;;;6.93;;
19782;SDS011;10051;40.294;-3.754;2023-10-31T11:32:59;15.73;;;6.80;;
19782;SDS011;10051;40.294;-3.754;2023-10-31T11:35:29;12.45;;;6.45;;
19782;SDS011;10051;40.294;-3.754;2023-10-31T11:38:08;14.98;;;5.95;;
19782;SDS011;10051;40.294;-3.754;2023-10-31T11:40:36;14.00;;;6.78;;
19782;SDS011;10051;40.294;-3.754;2023-10-31T11:43:03;14.15;;;6.40;;
19782;SDS011;10051;40.294;-3.754;2023-10-31T11:45:34;12.45;;;6.50;;
19782;SDS011;10051;40.294;-3.754;2023-10-31T11:48:02;16.00;;;6.70;;
19782;SDS011;10051;40.294;-3.754;2023-10-31T11:50:32;15.13;;;6.68;;
19782;SDS011;10051;40.294;-3.754;2023-10-31T11:53:04;15.85;;;6.68;;
19782;SDS011;10051;40.294;-3.754;2023-10-31T11:55:32;14.88;;;6.70;;
19782;SDS011;10051;40.294;-3.754;2023-10-31T11:58:12;21.60;;;7.95;;
19782;SDS011;10051;40.294;-3.754;2023-10-31T12:00:50;13.15;;;7.20;;
19782;SDS011;10051;40.294;-3.754;2023-10-31T12:03:18;17.38;;;7.35;;
19782;SDS011;10051;40.294;-3.754;2023-10-31T12:05:56;15.90;;;7.47;;
19782;SDS011;10051;40.294;-3.754;2023-10-31T12:08:29;16.35;;;7.72;;
19782;SDS011;10051;40.294;-3.754;2023-10-31T12:11:09;21.02;;;7.40;;
19782;SDS011;10051;40.294;-3.754;2023-10-31T12:13:51;18.95;;;7.07;;
19782;SDS011;10051;40.294;-3.754;2023-10-31T12:16:24;17.23;;;7.20;;
19782;SDS011;10051;40.294;-3.754;2023-10-31T12:18:58;13.82;;;6.60;;
19782;SDS011;10051;40.294;-3.754;2023-10-31T12:21:35;21.42;;;6.82;;
19782;SDS011;10051;40.294;-3.754;2023-10-31T12:24:04;17.05;;;7.10;;
19782;SDS011;10051;40.294;-3.754;2023-10-31T12:26:37;13.95;;;6.30;;
19782;SDS011;10051;40.294;-3.754;2023-10-31T12:29:13;11.70;;;6.07;;
19782;SDS011;10051;40.294;-3.754;2023-10-31T12:31:42;13.45;;;6.10;;
19782;SDS011;10051;40.294;-3.754;2023-10-31T12:34:10;12.98;;;6.70;;
19782;SDS011;10051;40.294;-3.754;2023-10-31T12:36:36;14.45;;;6.15;;
19782;SDS011;10051;40.294;-3.754;2023-10-31T12:39:04;15.93;;;6.28;;
19782;SDS011;10051;40.294;-3.754;2023-10-31T12:41:31;12.75;;;5.68;;
19782;SDS011;10051;40.294;-3.754;2023-10-31T12:43:57;12.15;;;5.50;;
19782;SDS011;10051;40.294;-3.754;2023-10-31T12:48:54;16.33;;;5.75;;
19782;SDS011;10051;40.294;-3.754;2023-10-31T12:51:20;13.63;;;5.40;;
19782;SDS011;10051;40.294;-3.754;2023-10-31T12:53:49;12.02;;;5.63;;
19782;SDS011;10051;40.294;-3.754;2023-10-31T12:56:34;12.35;;;5.28;;
19782;SDS011;10051;40.294;-3.754;2023-10-31T12:59:05;10.95;;;5.10;;
19782;SDS011;10051;40.294;-3.754;2023-10-31T13:01:39;15.60;;;5.15;;
19782;SDS011;10051;40.294;-3.754;2023-10-31T13:04:09;13.57;;;5.40;;
19782;SDS011;10051;40.294;-3.754;2023-10-31T13:06:35;12.23;;;5.35;;
19782;SDS011;10051;40.294;-3.754;2023-10-31T13:09:01;20.17;;;6.38;;
19782;SDS011;10051;40.294;-3.754;2023-10-31T13:11:31;14.95;;;6.13;;
19782;SDS011;10051;40.294;-3.754;2023-10-31T13:13:59;12.27;;;5.53;;
19782;SDS011;10051;40.294;-3.754;2023-10-31T13:16:25;11.63;;;5.45;;
19782;SDS011;10051;40.294;-3.754;2023-10-31T13:18:56;10.27;;;5.35;;
19782;SDS011;10051;40.294;-3.754;2023-10-31T13:21:21;15.38;;;5.20;;
19782;SDS011;10051;40.294;-3.754;2023-10-31T13:26:16;13.05;;;4.90;;
19782;SDS011;10051;40.294;-3.754;2023-10-31T13:28:42;15.65;;;5.30;;
19782;SDS011;10051;40.294;-3.754;2023-10-31T13:31:08;13.15;;;4.93;;
19782;SDS011;10051;40.294;-3.754;2023-10-31T13:33:33;12.77;;;5.10;;
19782;SDS011;10051;40.294;-3.754;2023-10-31T13:36:00;15.73;;;5.10;;
19782;SDS011;10051;40.294;-3.754;2023-10-31T13:38:25;11.57;;;4.95;;
19782;SDS011;10051;40.294;-3.754;2023-10-31T13:40:51;12.23;;;4.57;;
19782;SDS011;10051;40.294;-3.754;2023-10-31T13:43:17;12.05;;;4.30;;
19782;SDS011;10051;40.294;-3.754;2023-10-31T13:45:42;13.63;;;4.45;;
19782;SDS011;10051;40.294;-3.754;2023-10-31T13:48:08;12.57;;;5.07;;
19782;SDS011;10051;40.294;-3.754;2023-10-31T13:50:34;10.57;;;4.63;;
19782;SDS011;10051;40.294;-3.754;2023-10-31T13:53:00;14.82;;;5.22;;
19782;SDS011;10051;40.294;-3.754;2023-10-31T13:55:28;14.07;;;4.57;;
19782;SDS011;10051;40.294;-3.754;2023-10-31T13:57:56;10.57;;;4.72;;
19782;SDS011;10051;40.294;-3.754;2023-10-31T14:00:22;12.15;;;4.93;;
19782;SDS011;10051;40.294;-3.754;2023-10-31T14:02:47;11.32;;;4.95;;
19782;SDS011;10051;40.294;-3.754;2023-10-31T14:05:13;13.40;;;4.82;;
19782;SDS011;10051;40.294;-3.754;2023-10-31T14:07:39;11.65;;;4.80;;
19782;SDS011;10051;40.294;-3.754;2023-10-31T14:10:04;11.18;;;5.03;;
19782;SDS011;10051;40.294;-3.754;2023-10-31T14:12:30;11.15;;;5.10;;
19782;SDS011;10051;40.294;-3.754;2023-10-31T14:14:56;11.10;;;5.10;;
19782;SDS011;10051;40.294;-3.754;2023-10-31T14:17:21;11.13;;;4.97;;
19782;SDS011;10051;40.294;-3.754;2023-10-31T14:19:48;10.70;;;5.07;;
19782;SDS011;10051;40.294;-3.754;2023-10-31T14:22:14;13.70;;;5.72;;
19782;SDS011;10051;40.294;-3.754;2023-10-31T14:24:39;12.68;;;5.78;;
19782;SDS011;10051;40.294;-3.754;2023-10-31T14:27:05;14.05;;;5.50;;
19782;SDS011;10051;40.294;-3.754;2023-10-31T14:29:31;13.07;;;5.50;;
19782;SDS011;10051;40.294;-3.754;2023-10-31T14:31:56;12.55;;;5.78;;
19782;SDS011;10051;40.294;-3.754;2023-10-31T14:34:23;14.57;;;5.72;;
19782;SDS011;10051;40.294;-3.754;2023-10-31T14:36:48;12.07;;;5.63;;
19782;SDS011;10051;40.294;-3.754;2023-10-31T14:39:14;14.73;;;6.18;;
19782;SDS011;10051;40.294;-3.754;2023-10-31T14:41:40;14.85;;;6.63;;
19782;SDS011;10051;40.294;-3.754;2023-10-31T14:44:06;14.45;;;5.97;;
19782;SDS011;10051;40.294;-3.754;2023-10-31T14:46:33;17.90;;;5.97;;
19782;SDS011;10051;40.294;-3.754;2023-10-31T14:48:59;11.77;;;6.15;;
19782;SDS011;10051;40.294;-3.754;2023-10-31T14:51:24;15.20;;;6.57;;
19782;SDS011;10051;40.294;-3.754;2023-10-31T14:53:50;12.63;;;6.45;;
19782;SDS011;10051;40.294;-3.754;2023-10-31T14:56:16;13.15;;;6.45;;
19782;SDS011;10051;40.294;-3.754;2023-10-31T14:58:41;13.45;;;5.93;;
19782;SDS011;10051;40.294;-3.754;2023-10-31T15:01:07;14.82;;;6.97;;
19782;SDS011;10051;40.294;-3.754;2023-10-31T15:03:33;17.25;;;7.32;;
19782;SDS011;10051;40.294;-3.754;2023-10-31T15:05:58;17.15;;;7.22;;
19782;SDS011;10051;40.294;-3.754;2023-10-31T15:08:24;15.10;;;7.28;;
19782;SDS011;10051;40.294;-3.754;2023-10-31T15:10:51;15.05;;;6.88;;
19782;SDS011;10051;40.294;-3.754;2023-10-31T15:13:17;15.02;;;6.90;;
19782;SDS011;10051;40.294;-3.754;2023-10-31T15:15:43;16.45;;;6.82;;
19782;SDS011;10051;40.294;-3.754;2023-10-31T15:18:09;11.77;;;5.90;;
19782;SDS011;10051;40.294;-3.754;2023-10-31T15:20:35;11.90;;;5.82;;
19782;SDS011;10051;40.294;-3.754;2023-10-31T15:23:00;13.80;;;5.40;;
19782;SDS011;10051;40.294;-3.754;2023-10-31T15:25:26;16.17;;;5.28;;
19782;SDS011;10051;40.294;-3.754;2023-10-31T15:27:52;13.88;;;5.10;;
19782;SDS011;10051;40.294;-3.754;2023-10-31T15:30:17;9.65;;;3.70;;
19782;SDS011;10051;40.294;-3.754;2023-10-31T15:32:43;8.07;;;3.78;;
19782;SDS011;10051;40.294;-3.754;2023-10-31T15:35:09;11.07;;;3.88;;
19782;SDS011;10051;40.294;-3.754;2023-10-31T15:37:35;9.43;;;3.70;;
19782;SDS011;10051;40.294;-3.754;2023-10-31T15:40:01;9.30;;;4.10;;
19782;SDS011;10051;40.294;-3.754;2023-10-31T15:42:28;13.00;;;4.18;;
19782;SDS011;10051;40.294;-3.754;2023-10-31T15:44:54;9.25;;;3.40;;
19782;SDS011;10051;40.294;-3.754;2023-10-31T15:47:22;10.85;;;3.25;;
19782;SDS011;10051;40.294;-3.754;2023-10-31T15:49:48;8.35;;;3.05;;